sensor_id;sensor_type;location;lat;lon;timestamp;P1;durP1;ratioP1;P2;durP2;ratioP2
24483;SDS011;12643;51.620;7.548;2023-05-07T00:00:59;14.27;;;12.82;;
24483;SDS011;12643;51.620;7.548;2023-05-07T00:03:28;14.27;;;12.82;;
24483;SDS011;12643;51.620;7.548;2023-05-07T00:05:55;12.55;;;11.27;;
24483;SDS011;12643;51.620;7.548;2023-05-07T00:08:24;13.60;;;12.25;;
24483;SDS011;12643;51.620;7.548;2023-05-07T00:10:52;13.13;;;11.52;;
24483;SDS011;12643;51.620;7.548;2023-05-07T00:13:22;12.68;;;11.38;;
24483;SDS011;12643;51.620;7.548;2023-05-07T00:15:51;12.70;;;11.35;;
24483;SDS011;12643;51.620;7.548;2023-05-07T00:18:20;10.80;;;9.65;;
24483;SDS011;12643;51.620;7.548;2023-05-07T00:20:49;13.15;;;11.02;;
24483;SDS011;12643;51.620;7.548;2023-05-07T00:23:17;11.05;;;9.93;;
24483;SDS011;12643;51.620;7.548;2023-05-07T00:25:45;10.32;;;9.32;;
24483;SDS011;12643;51.620;7.548;2023-05-07T00:28:13;11.48;;;10.10;;
24483;SDS011;12643;51.620;7.548;2023-05-07T00:30:43;13.63;;;9.88;;
24483;SDS011;12643;51.620;7.548;2023-05-07T00:33:11;10.40;;;8.80;;
24483;SDS011;12643;51.620;7.548;2023-05-07T00:35:39;10.90;;;9.88;;
24483;SDS011;12643;51.620;7.548;2023-05-07T00:38:10;9.43;;;8.55;;
24483;SDS011;12643;51.620;7.548;2023-05-07T00:40:39;10.07;;;8.63;;
24483;SDS011;12643;51.620;7.548;2023-05-07T00:43:07;10.20;;;8.77;;
24483;SDS011;12643;51.620;7.548;2023-05-07T00:45:36;12.85;;;9.10;;
24483;SDS011;12643;51.620;7.548;2023-05-07T00:48:05;10.95;;;8.98;;
24483;SDS011;12643;51.620;7.548;2023-05-07T00:50:33;9.93;;;8.95;;
24483;SDS011;12643;51.620;7.548;2023-05-07T00:53:01;11.85;;;10.02;;
24483;SDS011;12643;51.620;7.548;2023-05-07T00:55:30;10.38;;;9.32;;
24483;SDS011;12643;51.620;7.548;2023-05-07T00:57:58;11.30;;;9.15;;
24483;SDS011;12643;51.620;7.548;2023-05-07T01:00:26;9.93;;;8.32;;
24483;SDS011;12643;51.620;7.548;2023-05-07T01:02:54;8.80;;;7.90;;
24483;SDS011;12643;51.620;7.548;2023-05-07T01:05:24;9.20;;;8.30;;
24483;SDS011;12643;51.620;7.548;2023-05-07T01:07:54;8.60;;;7.35;;
24483;SDS011;12643;51.620;7.548;2023-05-07T01:10:24;9.38;;;8.27;;
24483;SDS011;12643;51.620;7.548;2023-05-07T01:12:52;9.88;;;8.85;;
24483;SDS011;12643;51.620;7.548;2023-05-07T01:15:22;9.40;;;8.48;;
24483;SDS011;12643;51.620;7.548;2023-05-07T01:17:50;11.38;;;9.07;;
24483;SDS011;12643;51.620;7.548;2023-05-07T01:20:18;9.88;;;8.90;;
24483;SDS011;12643;51.620;7.548;2023-05-07T01:22:48;10.07;;;9.05;;
24483;SDS011;12643;51.620;7.548;2023-05-07T01:25:17;9.13;;;8.25;;
24483;SDS011;12643;51.620;7.548;2023-05-07T01:27:45;11.48;;;10.00;;
24483;SDS011;12643;51.620;7.548;2023-05-07T01:30:13;9.73;;;8.57;;
24483;SDS011;12643;51.620;7.548;2023-05-07T01:32:42;10.50;;;9.48;;
24483;SDS011;12643;51.620;7.548;2023-05-07T01:35:15;11.30;;;10.20;;
24483;SDS011;12643;51.620;7.548;2023-05-07T01:37:45;12.63;;;10.18;;
24483;SDS011;12643;51.620;7.548;2023-05-07T01:40:16;10.30;;;9.20;;
24483;SDS011;12643;51.620;7.548;2023-05-07T01:42:46;12.65;;;9.82;;
24483;SDS011;12643;51.620;7.548;2023-05-07T01:45:15;11.60;;;10.40;;
24483;SDS011;12643;51.620;7.548;2023-05-07T01:47:43;10.73;;;9.50;;
24483;SDS011;12643;51.620;7.548;2023-05-07T01:50:12;13.30;;;11.82;;
24483;SDS011;12643;51.620;7.548;2023-05-07T01:52:42;14.45;;;12.95;;
24483;SDS011;12643;51.620;7.548;2023-05-07T01:55:12;13.60;;;12.23;;
24483;SDS011;12643;51.620;7.548;2023-05-07T01:57:40;14.32;;;12.15;;
24483;SDS011;12643;51.620;7.548;2023-05-07T02:00:09;15.52;;;11.90;;
24483;SDS011;12643;51.620;7.548;2023-05-07T02:02:39;15.25;;;11.52;;
24483;SDS011;12643;51.620;7.548;2023-05-07T02:05:08;13.65;;;11.75;;
24483;SDS011;12643;51.620;7.548;2023-05-07T02:07:38;11.57;;;10.48;;
24483;SDS011;12643;51.620;7.548;2023-05-07T02:10:06;12.82;;;11.43;;
24483;SDS011;12643;51.620;7.548;2023-05-07T02:12:37;11.95;;;10.73;;
24483;SDS011;12643;51.620;7.548;2023-05-07T02:15:05;14.98;;;11.57;;
24483;SDS011;12643;51.620;7.548;2023-05-07T02:17:34;11.95;;;10.40;;
24483;SDS011;12643;51.620;7.548;2023-05-07T02:20:03;11.02;;;9.70;;
24483;SDS011;12643;51.620;7.548;2023-05-07T02:22:33;12.60;;;11.45;;
24483;SDS011;12643;51.620;7.548;2023-05-07T02:25:02;12.43;;;11.20;;
24483;SDS011;12643;51.620;7.548;2023-05-07T02:27:30;12.43;;;11.15;;
24483;SDS011;12643;51.620;7.548;2023-05-07T02:30:00;13.05;;;11.48;;
24483;SDS011;12643;51.620;7.548;2023-05-07T02:32:29;13.07;;;11.67;;
24483;SDS011;12643;51.620;7.548;2023-05-07T02:34:57;15.45;;;12.57;;
24483;SDS011;12643;51.620;7.548;2023-05-07T02:37:25;12.65;;;10.75;;
24483;SDS011;12643;51.620;7.548;2023-05-07T02:39:52;13.80;;;10.95;;
24483;SDS011;12643;51.620;7.548;2023-05-07T02:42:20;12.48;;;11.15;;
24483;SDS011;12643;51.620;7.548;2023-05-07T02:44:48;12.10;;;10.75;;
24483;SDS011;12643;51.620;7.548;2023-05-07T02:47:18;11.95;;;9.90;;
24483;SDS011;12643;51.620;7.548;2023-05-07T02:49:46;12.10;;;9.93;;
24483;SDS011;12643;51.620;7.548;2023-05-07T02:52:14;11.45;;;10.00;;
24483;SDS011;12643;51.620;7.548;2023-05-07T02:54:42;12.13;;;10.80;;
24483;SDS011;12643;51.620;7.548;2023-05-07T02:57:11;11.40;;;10.27;;
24483;SDS011;12643;51.620;7.548;2023-05-07T02:59:39;16.15;;;10.15;;
24483;SDS011;12643;51.620;7.548;2023-05-07T03:02:07;12.20;;;10.15;;
24483;SDS011;12643;51.620;7.548;2023-05-07T03:04:40;13.55;;;10.13;;
24483;SDS011;12643;51.620;7.548;2023-05-07T03:07:07;10.55;;;9.55;;
24483;SDS011;12643;51.620;7.548;2023-05-07T03:09:36;11.82;;;10.65;;
24483;SDS011;12643;51.620;7.548;2023-05-07T03:12:05;12.13;;;9.55;;
24483;SDS011;12643;51.620;7.548;2023-05-07T03:14:34;8.82;;;7.70;;
24483;SDS011;12643;51.620;7.548;2023-05-07T03:17:02;11.85;;;9.75;;
24483;SDS011;12643;51.620;7.548;2023-05-07T03:19:30;10.65;;;9.63;;
24483;SDS011;12643;51.620;7.548;2023-05-07T03:21:59;11.48;;;10.25;;
24483;SDS011;12643;51.620;7.548;2023-05-07T03:24:27;12.25;;;9.55;;
24483;SDS011;12643;51.620;7.548;2023-05-07T03:26:55;12.50;;;9.82;;
24483;SDS011;12643;51.620;7.548;2023-05-07T03:29:23;10.45;;;9.45;;
24483;SDS011;12643;51.620;7.548;2023-05-07T03:31:51;10.52;;;9.23;;
24483;SDS011;12643;51.620;7.548;2023-05-07T03:34:19;11.07;;;9.40;;
24483;SDS011;12643;51.620;7.548;2023-05-07T03:36:48;10.75;;;9.63;;
24483;SDS011;12643;51.620;7.548;2023-05-07T03:39:17;13.27;;;10.98;;
24483;SDS011;12643;51.620;7.548;2023-05-07T03:41:46;12.05;;;10.65;;
24483;SDS011;12643;51.620;7.548;2023-05-07T03:44:14;11.13;;;10.00;;
24483;SDS011;12643;51.620;7.548;2023-05-07T03:46:43;13.25;;;10.73;;
24483;SDS011;12643;51.620;7.548;2023-05-07T03:49:11;13.30;;;9.85;;
24483;SDS011;12643;51.620;7.548;2023-05-07T03:51:39;10.93;;;9.75;;
24483;SDS011;12643;51.620;7.548;2023-05-07T03:54:07;13.82;;;10.82;;
24483;SDS011;12643;51.620;7.548;2023-05-07T03:56:36;11.65;;;10.35;;
24483;SDS011;12643;51.620;7.548;2023-05-07T03:59:07;11.98;;;10.82;;
24483;SDS011;12643;51.620;7.548;2023-05-07T04:01:35;15.05;;;11.13;;
24483;SDS011;12643;51.620;7.548;2023-05-07T04:04:04;12.68;;;10.68;;
24483;SDS011;12643;51.620;7.548;2023-05-07T04:06:33;13.07;;;11.25;;
24483;SDS011;12643;51.620;7.548;2023-05-07T04:09:01;15.70;;;11.38;;
24483;SDS011;12643;51.620;7.548;2023-05-07T04:11:30;11.98;;;10.68;;
24483;SDS011;12643;51.620;7.548;2023-05-07T04:14:01;16.58;;;14.02;;
24483;SDS011;12643;51.620;7.548;2023-05-07T04:16:28;18.25;;;13.95;;
24483;SDS011;12643;51.620;7.548;2023-05-07T04:18:56;17.77;;;13.48;;
24483;SDS011;12643;51.620;7.548;2023-05-07T04:21:25;17.58;;;15.85;;
24483;SDS011;12643;51.620;7.548;2023-05-07T04:23:53;17.38;;;14.90;;
24483;SDS011;12643;51.620;7.548;2023-05-07T04:26:21;19.40;;;16.95;;
24483;SDS011;12643;51.620;7.548;2023-05-07T04:28:49;18.48;;;16.63;;
24483;SDS011;12643;51.620;7.548;2023-05-07T04:31:18;23.35;;;19.05;;
24483;SDS011;12643;51.620;7.548;2023-05-07T04:33:46;21.02;;;17.13;;
24483;SDS011;12643;51.620;7.548;2023-05-07T04:36:14;19.42;;;17.42;;
24483;SDS011;12643;51.620;7.548;2023-05-07T04:38:42;20.88;;;16.23;;
24483;SDS011;12643;51.620;7.548;2023-05-07T04:41:10;17.75;;;15.88;;
24483;SDS011;12643;51.620;7.548;2023-05-07T04:43:39;19.08;;;15.52;;
24483;SDS011;12643;51.620;7.548;2023-05-07T04:46:07;18.58;;;15.68;;
24483;SDS011;12643;51.620;7.548;2023-05-07T04:48:37;20.58;;;15.20;;
24483;SDS011;12643;51.620;7.548;2023-05-07T04:51:05;17.70;;;14.93;;
24483;SDS011;12643;51.620;7.548;2023-05-07T04:53:33;16.70;;;14.75;;
24483;SDS011;12643;51.620;7.548;2023-05-07T04:56:01;18.42;;;14.73;;
24483;SDS011;12643;51.620;7.548;2023-05-07T04:58:29;18.15;;;14.85;;
24483;SDS011;12643;51.620;7.548;2023-05-07T05:00:58;17.55;;;15.55;;
24483;SDS011;12643;51.620;7.548;2023-05-07T05:03:28;16.65;;;14.95;;
24483;SDS011;12643;51.620;7.548;2023-05-07T05:05:58;17.40;;;14.63;;
24483;SDS011;12643;51.620;7.548;2023-05-07T05:08:26;16.13;;;13.68;;
24483;SDS011;12643;51.620;7.548;2023-05-07T05:10:54;18.17;;;14.48;;
24483;SDS011;12643;51.620;7.548;2023-05-07T05:13:22;17.25;;;14.27;;
24483;SDS011;12643;51.620;7.548;2023-05-07T05:15:51;17.67;;;15.00;;
24483;SDS011;12643;51.620;7.548;2023-05-07T05:18:19;15.98;;;14.38;;
24483;SDS011;12643;51.620;7.548;2023-05-07T05:20:47;14.52;;;13.05;;
24483;SDS011;12643;51.620;7.548;2023-05-07T05:23:19;16.23;;;14.45;;
24483;SDS011;12643;51.620;7.548;2023-05-07T05:25:48;16.45;;;14.32;;
24483;SDS011;12643;51.620;7.548;2023-05-07T05:28:16;18.13;;;12.85;;
24483;SDS011;12643;51.620;7.548;2023-05-07T05:30:44;18.73;;;13.88;;
24483;SDS011;12643;51.620;7.548;2023-05-07T05:33:11;16.60;;;13.07;;
24483;SDS011;12643;51.620;7.548;2023-05-07T05:35:40;17.77;;;14.57;;
24483;SDS011;12643;51.620;7.548;2023-05-07T05:38:08;14.95;;;13.43;;
24483;SDS011;12643;51.620;7.548;2023-05-07T05:40:39;20.48;;;14.68;;
24483;SDS011;12643;51.620;7.548;2023-05-07T05:43:07;19.88;;;14.77;;
24483;SDS011;12643;51.620;7.548;2023-05-07T05:45:34;19.90;;;15.75;;
24483;SDS011;12643;51.620;7.548;2023-05-07T05:48:03;19.73;;;15.07;;
24483;SDS011;12643;51.620;7.548;2023-05-07T05:50:31;23.48;;;14.50;;
24483;SDS011;12643;51.620;7.548;2023-05-07T05:53:01;19.70;;;16.27;;
24483;SDS011;12643;51.620;7.548;2023-05-07T05:55:29;17.52;;;15.13;;
24483;SDS011;12643;51.620;7.548;2023-05-07T05:57:59;20.02;;;15.70;;
24483;SDS011;12643;51.620;7.548;2023-05-07T06:00:28;21.77;;;16.27;;
24483;SDS011;12643;51.620;7.548;2023-05-07T06:02:56;21.45;;;16.90;;
24483;SDS011;12643;51.620;7.548;2023-05-07T06:05:24;19.08;;;17.08;;
24483;SDS011;12643;51.620;7.548;2023-05-07T06:07:53;20.05;;;17.35;;
24483;SDS011;12643;51.620;7.548;2023-05-07T06:10:21;22.17;;;17.48;;
24483;SDS011;12643;51.620;7.548;2023-05-07T06:12:49;21.45;;;18.13;;
24483;SDS011;12643;51.620;7.548;2023-05-07T06:15:19;22.88;;;18.98;;
24483;SDS011;12643;51.620;7.548;2023-05-07T06:17:47;21.80;;;17.95;;
24483;SDS011;12643;51.620;7.548;2023-05-07T06:20:16;23.77;;;20.13;;
24483;SDS011;12643;51.620;7.548;2023-05-07T06:22:45;27.98;;;19.77;;
24483;SDS011;12643;51.620;7.548;2023-05-07T06:25:13;26.45;;;20.50;;
24483;SDS011;12643;51.620;7.548;2023-05-07T06:27:41;24.20;;;20.40;;
24483;SDS011;12643;51.620;7.548;2023-05-07T06:30:09;22.90;;;20.10;;
24483;SDS011;12643;51.620;7.548;2023-05-07T06:32:40;23.52;;;20.67;;
24483;SDS011;12643;51.620;7.548;2023-05-07T06:35:08;25.65;;;20.58;;
24483;SDS011;12643;51.620;7.548;2023-05-07T06:37:36;26.95;;;22.17;;
24483;SDS011;12643;51.620;7.548;2023-05-07T06:40:08;26.02;;;21.08;;
24483;SDS011;12643;51.620;7.548;2023-05-07T06:42:37;25.20;;;20.33;;
24483;SDS011;12643;51.620;7.548;2023-05-07T06:45:06;23.77;;;20.98;;
24483;SDS011;12643;51.620;7.548;2023-05-07T06:47:37;25.88;;;21.55;;
24483;SDS011;12643;51.620;7.548;2023-05-07T06:50:08;25.13;;;20.40;;
24483;SDS011;12643;51.620;7.548;2023-05-07T06:52:37;26.42;;;21.90;;
24483;SDS011;12643;51.620;7.548;2023-05-07T06:55:06;29.08;;;20.77;;
24483;SDS011;12643;51.620;7.548;2023-05-07T06:57:36;30.38;;;23.20;;
24483;SDS011;12643;51.620;7.548;2023-05-07T07:00:05;27.20;;;22.48;;
24483;SDS011;12643;51.620;7.548;2023-05-07T07:02:34;23.48;;;20.75;;
24483;SDS011;12643;51.620;7.548;2023-05-07T07:05:06;30.10;;;22.27;;
24483;SDS011;12643;51.620;7.548;2023-05-07T07:07:34;27.27;;;21.70;;
24483;SDS011;12643;51.620;7.548;2023-05-07T07:10:03;25.20;;;21.02;;
24483;SDS011;12643;51.620;7.548;2023-05-07T07:12:33;24.88;;;21.75;;
24483;SDS011;12643;51.620;7.548;2023-05-07T07:15:03;23.92;;;20.98;;
24483;SDS011;12643;51.620;7.548;2023-05-07T07:17:32;27.05;;;22.02;;
24483;SDS011;12643;51.620;7.548;2023-05-07T07:20:03;28.33;;;21.57;;
24483;SDS011;12643;51.620;7.548;2023-05-07T07:22:36;28.98;;;21.77;;
24483;SDS011;12643;51.620;7.548;2023-05-07T07:25:05;24.10;;;21.38;;
24483;SDS011;12643;51.620;7.548;2023-05-07T07:27:35;25.27;;;21.48;;
24483;SDS011;12643;51.620;7.548;2023-05-07T07:30:05;26.40;;;20.67;;
24483;SDS011;12643;51.620;7.548;2023-05-07T07:32:34;27.30;;;22.38;;
24483;SDS011;12643;51.620;7.548;2023-05-07T07:35:07;26.38;;;22.40;;
24483;SDS011;12643;51.620;7.548;2023-05-07T07:37:35;24.77;;;22.10;;
24483;SDS011;12643;51.620;7.548;2023-05-07T07:40:05;27.85;;;22.70;;
24483;SDS011;12643;51.620;7.548;2023-05-07T07:42:36;23.73;;;21.13;;
24483;SDS011;12643;51.620;7.548;2023-05-07T07:45:04;25.42;;;21.73;;
24483;SDS011;12643;51.620;7.548;2023-05-07T07:47:33;25.08;;;21.90;;
24483;SDS011;12643;51.620;7.548;2023-05-07T07:50:01;24.95;;;21.00;;
24483;SDS011;12643;51.620;7.548;2023-05-07T07:52:30;27.42;;;21.17;;
24483;SDS011;12643;51.620;7.548;2023-05-07T07:54:58;27.30;;;21.23;;
24483;SDS011;12643;51.620;7.548;2023-05-07T07:57:26;21.17;;;18.88;;
24483;SDS011;12643;51.620;7.548;2023-05-07T07:59:57;26.50;;;20.85;;
24483;SDS011;12643;51.620;7.548;2023-05-07T08:05:16;23.80;;;20.13;;
24483;SDS011;12643;51.620;7.548;2023-05-07T08:07:46;23.95;;;19.25;;
24483;SDS011;12643;51.620;7.548;2023-05-07T08:10:17;25.55;;;19.65;;
24483;SDS011;12643;51.620;7.548;2023-05-07T08:12:47;23.10;;;20.38;;
24483;SDS011;12643;51.620;7.548;2023-05-07T08:15:15;27.33;;;20.15;;
24483;SDS011;12643;51.620;7.548;2023-05-07T08:17:44;30.95;;;21.15;;
24483;SDS011;12643;51.620;7.548;2023-05-07T08:20:12;22.35;;;19.05;;
24483;SDS011;12643;51.620;7.548;2023-05-07T08:22:40;25.33;;;20.00;;
24483;SDS011;12643;51.620;7.548;2023-05-07T08:25:10;22.45;;;19.45;;
24483;SDS011;12643;51.620;7.548;2023-05-07T08:27:38;23.98;;;19.35;;
24483;SDS011;12643;51.620;7.548;2023-05-07T08:30:07;21.17;;;18.35;;
24483;SDS011;12643;51.620;7.548;2023-05-07T08:32:36;23.77;;;18.90;;
24483;SDS011;12643;51.620;7.548;2023-05-07T08:35:04;21.00;;;18.63;;
24483;SDS011;12643;51.620;7.548;2023-05-07T08:37:33;21.65;;;16.42;;
24483;SDS011;12643;51.620;7.548;2023-05-07T08:40:01;23.13;;;17.25;;
24483;SDS011;12643;51.620;7.548;2023-05-07T08:42:31;21.73;;;16.90;;
24483;SDS011;12643;51.620;7.548;2023-05-07T08:45:04;18.70;;;16.80;;
24483;SDS011;12643;51.620;7.548;2023-05-07T08:47:38;21.63;;;17.27;;
24483;SDS011;12643;51.620;7.548;2023-05-07T08:50:11;27.27;;;17.65;;
24483;SDS011;12643;51.620;7.548;2023-05-07T08:52:39;20.50;;;17.05;;
24483;SDS011;12643;51.620;7.548;2023-05-07T08:55:08;20.65;;;16.98;;
24483;SDS011;12643;51.620;7.548;2023-05-07T08:57:38;19.20;;;16.33;;
24483;SDS011;12643;51.620;7.548;2023-05-07T09:00:06;25.15;;;17.95;;
24483;SDS011;12643;51.620;7.548;2023-05-07T09:02:35;18.77;;;16.45;;
24483;SDS011;12643;51.620;7.548;2023-05-07T09:05:04;20.88;;;17.50;;
24483;SDS011;12643;51.620;7.548;2023-05-07T09:07:33;25.50;;;17.00;;
24483;SDS011;12643;51.620;7.548;2023-05-07T09:10:01;18.40;;;16.00;;
24483;SDS011;12643;51.620;7.548;2023-05-07T09:12:30;19.95;;;17.83;;
24483;SDS011;12643;51.620;7.548;2023-05-07T09:15:02;21.52;;;16.42;;
24483;SDS011;12643;51.620;7.548;2023-05-07T09:17:31;20.15;;;16.25;;
24483;SDS011;12643;51.620;7.548;2023-05-07T09:20:01;17.95;;;16.05;;
24483;SDS011;12643;51.620;7.548;2023-05-07T09:22:31;18.20;;;15.05;;
24483;SDS011;12643;51.620;7.548;2023-05-07T09:24:59;20.48;;;17.45;;
24483;SDS011;12643;51.620;7.548;2023-05-07T09:27:27;21.23;;;17.48;;
24483;SDS011;12643;51.620;7.548;2023-05-07T09:29:57;21.48;;;17.02;;
24483;SDS011;12643;51.620;7.548;2023-05-07T09:32:27;23.88;;;16.48;;
24483;SDS011;12643;51.620;7.548;2023-05-07T09:34:57;18.15;;;15.57;;
24483;SDS011;12643;51.620;7.548;2023-05-07T09:37:26;20.20;;;17.10;;
24483;SDS011;12643;51.620;7.548;2023-05-07T09:39:54;19.42;;;16.75;;
24483;SDS011;12643;51.620;7.548;2023-05-07T09:42:35;21.98;;;16.55;;
24483;SDS011;12643;51.620;7.548;2023-05-07T09:45:05;20.50;;;16.83;;
24483;SDS011;12643;51.620;7.548;2023-05-07T09:47:35;17.92;;;15.88;;
24483;SDS011;12643;51.620;7.548;2023-05-07T09:50:10;22.20;;;15.60;;
24483;SDS011;12643;51.620;7.548;2023-05-07T09:52:43;19.77;;;15.07;;
24483;SDS011;12643;51.620;7.548;2023-05-07T09:55:12;18.27;;;16.38;;
24483;SDS011;12643;51.620;7.548;2023-05-07T09:57:41;20.52;;;16.65;;
24483;SDS011;12643;51.620;7.548;2023-05-07T10:00:10;20.45;;;16.92;;
24483;SDS011;12643;51.620;7.548;2023-05-07T10:02:41;19.38;;;16.08;;
24483;SDS011;12643;51.620;7.548;2023-05-07T10:05:14;18.80;;;16.13;;
24483;SDS011;12643;51.620;7.548;2023-05-07T10:07:44;19.08;;;13.90;;
24483;SDS011;12643;51.620;7.548;2023-05-07T10:10:14;18.50;;;14.68;;
24483;SDS011;12643;51.620;7.548;2023-05-07T10:12:43;17.98;;;15.35;;
24483;SDS011;12643;51.620;7.548;2023-05-07T10:15:15;17.48;;;14.57;;
24483;SDS011;12643;51.620;7.548;2023-05-07T10:17:44;15.40;;;12.60;;
24483;SDS011;12643;51.620;7.548;2023-05-07T10:20:13;17.75;;;14.45;;
24483;SDS011;12643;51.620;7.548;2023-05-07T10:22:42;16.10;;;13.38;;
24483;SDS011;12643;51.620;7.548;2023-05-07T10:25:14;14.10;;;12.20;;
24483;SDS011;12643;51.620;7.548;2023-05-07T10:27:45;13.27;;;10.27;;
24483;SDS011;12643;51.620;7.548;2023-05-07T10:30:16;17.02;;;12.73;;
24483;SDS011;12643;51.620;7.548;2023-05-07T10:32:53;16.73;;;14.73;;
24483;SDS011;12643;51.620;7.548;2023-05-07T10:35:24;17.52;;;15.57;;
24483;SDS011;12643;51.620;7.548;2023-05-07T10:37:54;17.75;;;14.48;;
24483;SDS011;12643;51.620;7.548;2023-05-07T10:40:22;18.35;;;13.82;;
24483;SDS011;12643;51.620;7.548;2023-05-07T10:42:54;17.52;;;14.40;;
24483;SDS011;12643;51.620;7.548;2023-05-07T10:45:23;16.13;;;13.65;;
24483;SDS011;12643;51.620;7.548;2023-05-07T10:48:12;16.40;;;13.70;;
24483;SDS011;12643;51.620;7.548;2023-05-07T10:50:41;16.05;;;12.20;;
24483;SDS011;12643;51.620;7.548;2023-05-07T10:53:22;17.85;;;14.98;;
24483;SDS011;12643;51.620;7.548;2023-05-07T11:01:59;18.13;;;13.65;;
24483;SDS011;12643;51.620;7.548;2023-05-07T11:04:33;14.82;;;13.18;;
24483;SDS011;12643;51.620;7.548;2023-05-07T11:09:59;16.30;;;13.15;;
24483;SDS011;12643;51.620;7.548;2023-05-07T11:12:50;16.10;;;14.07;;
24483;SDS011;12643;51.620;7.548;2023-05-07T11:15:42;15.43;;;12.95;;
24483;SDS011;12643;51.620;7.548;2023-05-07T11:18:13;17.45;;;13.90;;
24483;SDS011;12643;51.620;7.548;2023-05-07T11:20:46;16.02;;;13.68;;
24483;SDS011;12643;51.620;7.548;2023-05-07T11:26:19;15.68;;;13.07;;
24483;SDS011;12643;51.620;7.548;2023-05-07T11:28:47;16.33;;;12.10;;
24483;SDS011;12643;51.620;7.548;2023-05-07T11:31:17;14.55;;;13.05;;
24483;SDS011;12643;51.620;7.548;2023-05-07T11:33:49;17.70;;;12.43;;
24483;SDS011;12643;51.620;7.548;2023-05-07T11:36:21;15.48;;;11.32;;
24483;SDS011;12643;51.620;7.548;2023-05-07T11:38:53;16.08;;;11.35;;
24483;SDS011;12643;51.620;7.548;2023-05-07T11:41:21;16.45;;;10.40;;
24483;SDS011;12643;51.620;7.548;2023-05-07T11:43:54;17.58;;;11.68;;
24483;SDS011;12643;51.620;7.548;2023-05-07T11:46:26;11.38;;;9.95;;
24483;SDS011;12643;51.620;7.548;2023-05-07T11:48:56;11.43;;;8.90;;
24483;SDS011;12643;51.620;7.548;2023-05-07T11:51:26;10.82;;;9.30;;
24483;SDS011;12643;51.620;7.548;2023-05-07T11:53:57;13.50;;;9.95;;
24483;SDS011;12643;51.620;7.548;2023-05-07T11:56:28;12.60;;;10.73;;
24483;SDS011;12643;51.620;7.548;2023-05-07T11:59:01;10.13;;;9.02;;
24483;SDS011;12643;51.620;7.548;2023-05-07T12:01:29;11.77;;;10.57;;
24483;SDS011;12643;51.620;7.548;2023-05-07T12:04:03;14.10;;;11.00;;
24483;SDS011;12643;51.620;7.548;2023-05-07T12:06:35;11.60;;;10.40;;
24483;SDS011;12643;51.620;7.548;2023-05-07T12:09:04;13.98;;;12.02;;
24483;SDS011;12643;51.620;7.548;2023-05-07T12:11:38;11.38;;;9.43;;
24483;SDS011;12643;51.620;7.548;2023-05-07T12:14:06;12.10;;;9.85;;
24483;SDS011;12643;51.620;7.548;2023-05-07T12:16:34;14.13;;;9.40;;
24483;SDS011;12643;51.620;7.548;2023-05-07T12:19:02;11.02;;;8.40;;
24483;SDS011;12643;51.620;7.548;2023-05-07T12:21:34;10.15;;;9.07;;
24483;SDS011;12643;51.620;7.548;2023-05-07T12:24:04;10.85;;;8.70;;
24483;SDS011;12643;51.620;7.548;2023-05-07T12:26:32;9.00;;;8.05;;
24483;SDS011;12643;51.620;7.548;2023-05-07T12:29:03;10.40;;;9.30;;
24483;SDS011;12643;51.620;7.548;2023-05-07T12:31:31;10.27;;;7.95;;
24483;SDS011;12643;51.620;7.548;2023-05-07T12:33:59;8.93;;;7.93;;
24483;SDS011;12643;51.620;7.548;2023-05-07T12:36:35;9.98;;;7.65;;
24483;SDS011;12643;51.620;7.548;2023-05-07T12:39:06;11.48;;;7.78;;
24483;SDS011;12643;51.620;7.548;2023-05-07T12:41:52;7.88;;;7.07;;
24483;SDS011;12643;51.620;7.548;2023-05-07T12:44:21;12.27;;;7.55;;
24483;SDS011;12643;51.620;7.548;2023-05-07T12:46:50;7.95;;;6.05;;
24483;SDS011;12643;51.620;7.548;2023-05-07T12:49:19;8.63;;;6.50;;
24483;SDS011;12643;51.620;7.548;2023-05-07T12:51:49;7.38;;;6.50;;
24483;SDS011;12643;51.620;7.548;2023-05-07T12:54:27;8.85;;;7.60;;
24483;SDS011;12643;51.620;7.548;2023-05-07T12:57:02;6.43;;;5.75;;
24483;SDS011;12643;51.620;7.548;2023-05-07T12:59:35;12.10;;;6.93;;
24483;SDS011;12643;51.620;7.548;2023-05-07T13:02:04;7.32;;;6.07;;
24483;SDS011;12643;51.620;7.548;2023-05-07T13:04:33;7.40;;;5.63;;
24483;SDS011;12643;51.620;7.548;2023-05-07T13:07:03;7.97;;;6.55;;
24483;SDS011;12643;51.620;7.548;2023-05-07T13:09:32;7.88;;;7.07;;
24483;SDS011;12643;51.620;7.548;2023-05-07T13:12:00;7.32;;;6.63;;
24483;SDS011;12643;51.620;7.548;2023-05-07T13:14:28;7.10;;;6.50;;
24483;SDS011;12643;51.620;7.548;2023-05-07T13:16:56;9.13;;;7.18;;
24483;SDS011;12643;51.620;7.548;2023-05-07T13:19:24;8.40;;;6.97;;
24483;SDS011;12643;51.620;7.548;2023-05-07T13:21:52;10.45;;;7.13;;
24483;SDS011;12643;51.620;7.548;2023-05-07T13:24:23;9.60;;;6.93;;
24483;SDS011;12643;51.620;7.548;2023-05-07T13:26:51;8.63;;;7.72;;
24483;SDS011;12643;51.620;7.548;2023-05-07T13:29:19;10.05;;;7.70;;
24483;SDS011;12643;51.620;7.548;2023-05-07T13:31:51;9.55;;;7.75;;
24483;SDS011;12643;51.620;7.548;2023-05-07T13:34:19;13.10;;;8.48;;
24483;SDS011;12643;51.620;7.548;2023-05-07T13:36:49;11.23;;;9.38;;
24483;SDS011;12643;51.620;7.548;2023-05-07T13:39:17;11.05;;;8.07;;
24483;SDS011;12643;51.620;7.548;2023-05-07T13:41:47;10.07;;;7.80;;
24483;SDS011;12643;51.620;7.548;2023-05-07T13:44:15;8.38;;;7.38;;
24483;SDS011;12643;51.620;7.548;2023-05-07T13:46:43;8.48;;;7.35;;
24483;SDS011;12643;51.620;7.548;2023-05-07T13:49:11;8.30;;;7.38;;
24483;SDS011;12643;51.620;7.548;2023-05-07T13:54:12;9.82;;;7.30;;
24483;SDS011;12643;51.620;7.548;2023-05-07T13:56:40;7.40;;;6.60;;
24483;SDS011;12643;51.620;7.548;2023-05-07T13:59:13;7.43;;;6.63;;
24483;SDS011;12643;51.620;7.548;2023-05-07T14:01:47;8.40;;;7.30;;
24483;SDS011;12643;51.620;7.548;2023-05-07T14:11:19;10.38;;;7.32;;
24483;SDS011;12643;51.620;7.548;2023-05-07T14:36:02;9.50;;;7.45;;
24483;SDS011;12643;51.620;7.548;2023-05-07T14:38:31;7.95;;;7.13;;
24483;SDS011;12643;51.620;7.548;2023-05-07T14:41:05;8.53;;;7.23;;
24483;SDS011;12643;51.620;7.548;2023-05-07T14:43:44;6.75;;;5.90;;
24483;SDS011;12643;51.620;7.548;2023-05-07T14:46:18;8.52;;;7.65;;
24483;SDS011;12643;51.620;7.548;2023-05-07T14:48:56;7.30;;;6.60;;
24483;SDS011;12643;51.620;7.548;2023-05-07T14:51:30;9.32;;;6.88;;
24483;SDS011;12643;51.620;7.548;2023-05-07T14:54:03;7.67;;;6.90;;
24483;SDS011;12643;51.620;7.548;2023-05-07T14:56:36;9.23;;;7.55;;
24483;SDS011;12643;51.620;7.548;2023-05-07T14:59:15;7.82;;;7.07;;
24483;SDS011;12643;51.620;7.548;2023-05-07T15:01:47;9.40;;;7.75;;
24483;SDS011;12643;51.620;7.548;2023-05-07T15:04:17;8.63;;;7.72;;
24483;SDS011;12643;51.620;7.548;2023-05-07T15:06:53;8.20;;;7.25;;
24483;SDS011;12643;51.620;7.548;2023-05-07T15:09:27;8.45;;;7.20;;
24483;SDS011;12643;51.620;7.548;2023-05-07T15:11:55;10.05;;;7.93;;
24483;SDS011;12643;51.620;7.548;2023-05-07T15:14:26;8.80;;;7.90;;
24483;SDS011;12643;51.620;7.548;2023-05-07T15:17:12;9.75;;;7.68;;
24483;SDS011;12643;51.620;7.548;2023-05-07T15:19:51;9.27;;;7.45;;
24483;SDS011;12643;51.620;7.548;2023-05-07T15:23:09;10.05;;;8.20;;
24483;SDS011;12643;51.620;7.548;2023-05-07T15:25:40;10.23;;;7.10;;
24483;SDS011;12643;51.620;7.548;2023-05-07T15:28:09;7.72;;;5.80;;
24483;SDS011;12643;51.620;7.548;2023-05-07T15:30:39;6.38;;;5.60;;